sensor_id;sensor_type;location;lat;lon;timestamp;temperature;humidity
36442;DHT22;73131;50.820;16.274;2024-03-23T00:55:20;11.00;99.90
36442;DHT22;73131;50.820;16.274;2024-03-23T00:58:21;10.90;99.90
36442;DHT22;73131;50.820;16.274;2024-03-23T01:01:22;11.00;99.90
36442;DHT22;73131;50.820;16.274;2024-03-23T01:04:23;11.00;99.90
36442;DHT22;73131;50.820;16.274;2024-03-23T01:07:24;11.00;99.90
36442;DHT22;73131;50.820;16.274;2024-03-23T01:10:25;11.00;99.90
36442;DHT22;73131;50.820;16.274;2024-03-23T01:13:27;10.90;99.90
36442;DHT22;73131;50.820;16.274;2024-03-23T01:16:32;10.90;99.90
36442;DHT22;73131;50.820;16.274;2024-03-23T01:19:33;10.90;99.90
36442;DHT22;73131;50.820;16.274;2024-03-23T01:22:34;10.90;99.90
36442;DHT22;73131;50.820;16.274;2024-03-23T01:25:35;10.90;99.90
36442;DHT22;73131;50.820;16.274;2024-03-23T01:28:39;10.80;99.90
36442;DHT22;73131;50.820;16.274;2024-03-23T01:31:43;10.80;99.90
36442;DHT22;73131;50.820;16.274;2024-03-23T01:34:46;10.70;99.90
36442;DHT22;73131;50.820;16.274;2024-03-23T01:37:49;10.60;99.90
36442;DHT22;73131;50.820;16.274;2024-03-23T01:40:57;10.70;99.90
36442;DHT22;73131;50.820;16.274;2024-03-23T01:44:04;10.70;99.90
36442;DHT22;73131;50.820;16.274;2024-03-23T01:47:06;10.70;99.90
36442;DHT22;73131;50.820;16.274;2024-03-23T01:50:08;10.70;99.90
36442;DHT22;73131;50.820;16.274;2024-03-23T01:53:09;10.70;99.90
36442;DHT22;73131;50.820;16.274;2024-03-23T01:56:10;10.70;99.90
36442;DHT22;73131;50.820;16.274;2024-03-23T01:59:14;10.60;99.90
36442;DHT22;73131;50.820;16.274;2024-03-23T02:02:15;10.60;99.90
36442;DHT22;73131;50.820;16.274;2024-03-23T02:05:18;10.60;99.90
36442;DHT22;73131;50.820;16.274;2024-03-23T02:08:21;10.60;99.90
36442;DHT22;73131;50.820;16.274;2024-03-23T02:11:25;10.50;99.90
36442;DHT22;73131;50.820;16.274;2024-03-23T02:14:26;10.50;99.90
36442;DHT22;73131;50.820;16.274;2024-03-23T02:17:30;10.60;99.90
36442;DHT22;73131;50.820;16.274;2024-03-23T02:20:32;10.50;99.90
36442;DHT22;73131;50.820;16.274;2024-03-23T02:23:33;10.60;99.90
36442;DHT22;73131;50.820;16.274;2024-03-23T02:26:34;10.50;99.90
36442;DHT22;73131;50.820;16.274;2024-03-23T02:29:34;10.50;99.90
36442;DHT22;73131;50.820;16.274;2024-03-23T02:32:36;10.40;99.90
36442;DHT22;73131;50.820;16.274;2024-03-23T02:35:36;10.40;99.90
36442;DHT22;73131;50.820;16.274;2024-03-23T02:38:38;10.40;99.90
36442;DHT22;73131;50.820;16.274;2024-03-23T02:41:38;10.40;99.90
36442;DHT22;73131;50.820;16.274;2024-03-23T02:44:39;10.30;99.90
36442;DHT22;73131;50.820;16.274;2024-03-23T02:47:40;10.30;99.90
36442;DHT22;73131;50.820;16.274;2024-03-23T02:50:41;10.20;99.90
36442;DHT22;73131;50.820;16.274;2024-03-23T02:53:42;10.20;99.90
36442;DHT22;73131;50.820;16.274;2024-03-23T02:56:46;10.20;99.90
36442;DHT22;73131;50.820;16.274;2024-03-23T02:59:49;10.20;99.90
36442;DHT22;73131;50.820;16.274;2024-03-23T03:02:50;10.20;99.90
36442;DHT22;73131;50.820;16.274;2024-03-23T03:06:02;10.20;99.90
36442;DHT22;73131;50.820;16.274;2024-03-23T03:09:03;10.20;99.90
36442;DHT22;73131;50.820;16.274;2024-03-23T03:12:07;10.30;99.90
36442;DHT22;73131;50.820;16.274;2024-03-23T03:15:08;10.30;99.90
36442;DHT22;73131;50.820;16.274;2024-03-23T03:18:10;10.30;99.90
36442;DHT22;73131;50.820;16.274;2024-03-23T03:21:11;10.30;99.90
36442;DHT22;73131;50.820;16.274;2024-03-23T03:24:12;10.30;99.90
36442;DHT22;73131;50.820;16.274;2024-03-23T03:27:15;10.30;99.90
36442;DHT22;73131;50.820;16.274;2024-03-23T03:30:18;10.30;99.90
36442;DHT22;73131;50.820;16.274;2024-03-23T03:33:19;10.40;99.90
36442;DHT22;73131;50.820;16.274;2024-03-23T03:36:20;10.40;99.90
36442;DHT22;73131;50.820;16.274;2024-03-23T03:39:22;10.40;99.90
36442;DHT22;73131;50.820;16.274;2024-03-23T03:42:23;10.40;99.90
36442;DHT22;73131;50.820;16.274;2024-03-23T03:45:24;10.30;99.90
36442;DHT22;73131;50.820;16.274;2024-03-23T03:48:25;10.30;99.90
36442;DHT22;73131;50.820;16.274;2024-03-23T03:51:29;10.20;99.90
36442;DHT22;73131;50.820;16.274;2024-03-23T03:54:30;10.10;99.90
36442;DHT22;73131;50.820;16.274;2024-03-23T03:57:36;10.00;99.90
36442;DHT22;73131;50.820;16.274;2024-03-23T04:00:36;10.00;99.90
36442;DHT22;73131;50.820;16.274;2024-03-23T04:03:38;10.00;99.90
36442;DHT22;73131;50.820;16.274;2024-03-23T04:06:44;9.90;99.90
36442;DHT22;73131;50.820;16.274;2024-03-23T04:09:47;9.90;99.90
36442;DHT22;73131;50.820;16.274;2024-03-23T04:12:50;9.80;99.90
36442;DHT22;73131;50.820;16.274;2024-03-23T04:15:55;9.80;99.90
36442;DHT22;73131;50.820;16.274;2024-03-23T04:18:56;9.80;99.90
36442;DHT22;73131;50.820;16.274;2024-03-23T04:21:57;9.70;99.90
36442;DHT22;73131;50.820;16.274;2024-03-23T04:24:58;9.70;99.90
36442;DHT22;73131;50.820;16.274;2024-03-23T04:27:59;9.70;99.90
36442;DHT22;73131;50.820;16.274;2024-03-23T04:31:04;9.60;99.90
36442;DHT22;73131;50.820;16.274;2024-03-23T04:34:05;9.70;99.90
36442;DHT22;73131;50.820;16.274;2024-03-23T04:37:06;9.60;99.90
36442;DHT22;73131;50.820;16.274;2024-03-23T04:40:10;9.60;99.90
36442;DHT22;73131;50.820;16.274;2024-03-23T04:43:11;9.60;99.90
36442;DHT22;73131;50.820;16.274;2024-03-23T04:46:15;9.60;99.90
36442;DHT22;73131;50.820;16.274;2024-03-23T04:49:16;9.60;99.90
36442;DHT22;73131;50.820;16.274;2024-03-23T04:52:17;9.50;99.90
36442;DHT22;73131;50.820;16.274;2024-03-23T04:55:21;9.50;99.90
36442;DHT22;73131;50.820;16.274;2024-03-23T04:58:23;9.50;99.90
36442;DHT22;73131;50.820;16.274;2024-03-23T05:01:24;9.50;99.90
36442;DHT22;73131;50.820;16.274;2024-03-23T05:04:25;9.50;99.90
36442;DHT22;73131;50.820;16.274;2024-03-23T05:07:26;9.50;99.90
36442;DHT22;73131;50.820;16.274;2024-03-23T05:10:27;9.50;99.90
36442;DHT22;73131;50.820;16.274;2024-03-23T05:13:30;9.60;99.90
36442;DHT22;73131;50.820;16.274;2024-03-23T05:16:31;9.60;99.90
36442;DHT22;73131;50.820;16.274;2024-03-23T05:19:32;9.70;99.90
36442;DHT22;73131;50.820;16.274;2024-03-23T05:22:33;9.80;99.90
36442;DHT22;73131;50.820;16.274;2024-03-23T05:25:34;9.80;99.90
36442;DHT22;73131;50.820;16.274;2024-03-23T05:28:35;9.90;99.90
36442;DHT22;73131;50.820;16.274;2024-03-23T05:31:36;10.00;99.90
36442;DHT22;73131;50.820;16.274;2024-03-23T05:34:38;10.00;99.90
36442;DHT22;73131;50.820;16.274;2024-03-23T05:37:44;10.10;99.90
36442;DHT22;73131;50.820;16.274;2024-03-23T05:40:59;10.20;99.90
36442;DHT22;73131;50.820;16.274;2024-03-23T05:44:00;10.40;99.90
36442;DHT22;73131;50.820;16.274;2024-03-23T05:47:01;10.50;99.90
36442;DHT22;73131;50.820;16.274;2024-03-23T05:50:02;10.80;99.90
36442;DHT22;73131;50.820;16.274;2024-03-23T05:53:08;11.20;99.90
36442;DHT22;73131;50.820;16.274;2024-03-23T05:56:09;11.60;99.90
36442;DHT22;73131;50.820;16.274;2024-03-23T05:59:10;11.80;99.90
36442;DHT22;73131;50.820;16.274;2024-03-23T06:02:11;12.00;99.90
36442;DHT22;73131;50.820;16.274;2024-03-23T06:05:13;12.00;99.90
36442;DHT22;73131;50.820;16.274;2024-03-23T06:08:18;12.00;99.90
36442;DHT22;73131;50.820;16.274;2024-03-23T06:11:24;11.90;99.90
36442;DHT22;73131;50.820;16.274;2024-03-23T06:14:27;11.80;99.90
36442;DHT22;73131;50.820;16.274;2024-03-23T06:17:28;11.60;99.90
36442;DHT22;73131;50.820;16.274;2024-03-23T06:20:29;11.40;99.90
36442;DHT22;73131;50.820;16.274;2024-03-23T06:23:30;11.40;99.90
36442;DHT22;73131;50.820;16.274;2024-03-23T06:26:33;11.30;99.90
36442;DHT22;73131;50.820;16.274;2024-03-23T06:29:34;11.20;99.90
36442;DHT22;73131;50.820;16.274;2024-03-23T06:32:37;11.20;99.90
36442;DHT22;73131;50.820;16.274;2024-03-23T06:35:40;11.30;99.90
36442;DHT22;73131;50.820;16.274;2024-03-23T06:38:45;11.40;99.90
36442;DHT22;73131;50.820;16.274;2024-03-23T06:41:51;12.50;99.90
36442;DHT22;73131;50.820;16.274;2024-03-23T06:44:54;14.70;99.90
36442;DHT22;73131;50.820;16.274;2024-03-23T06:47:55;16.90;99.90
36442;DHT22;73131;50.820;16.274;2024-03-23T06:50:58;19.20;99.90
36442;DHT22;73131;50.820;16.274;2024-03-23T06:53:59;21.00;98.40
36442;DHT22;73131;50.820;16.274;2024-03-23T06:57:00;22.60;94.80
36442;DHT22;73131;50.820;16.274;2024-03-23T07:00:04;22.90;91.40
36442;DHT22;73131;50.820;16.274;2024-03-23T07:03:08;22.70;90.00
36442;DHT22;73131;50.820;16.274;2024-03-23T07:06:09;23.00;89.30
36442;DHT22;73131;50.820;16.274;2024-03-23T07:09:14;23.90;86.00
36442;DHT22;73131;50.820;16.274;2024-03-23T07:12:17;23.60;83.30
36442;DHT22;73131;50.820;16.274;2024-03-23T07:15:18;22.50;83.40
36442;DHT22;73131;50.820;16.274;2024-03-23T07:18:19;20.70;87.40
36442;DHT22;73131;50.820;16.274;2024-03-23T07:21:20;19.10;91.10
36442;DHT22;73131;50.820;16.274;2024-03-23T07:24:25;17.70;93.80
36442;DHT22;73131;50.820;16.274;2024-03-23T07:27:31;16.50;96.80
36442;DHT22;73131;50.820;16.274;2024-03-23T07:30:35;15.70;99.80
36442;DHT22;73131;50.820;16.274;2024-03-23T07:33:37;15.10;99.90
36442;DHT22;73131;50.820;16.274;2024-03-23T07:36:39;14.70;99.90
36442;DHT22;73131;50.820;16.274;2024-03-23T07:39:40;14.40;99.90
36442;DHT22;73131;50.820;16.274;2024-03-23T07:42:41;14.00;99.90
36442;DHT22;73131;50.820;16.274;2024-03-23T07:45:44;13.60;99.90
36442;DHT22;73131;50.820;16.274;2024-03-23T07:48:52;13.50;99.90
36442;DHT22;73131;50.820;16.274;2024-03-23T07:51:52;13.30;99.90
36442;DHT22;73131;50.820;16.274;2024-03-23T07:54:54;13.10;99.90
36442;DHT22;73131;50.820;16.274;2024-03-23T07:57:54;12.90;99.90
36442;DHT22;73131;50.820;16.274;2024-03-23T08:01:04;12.70;99.90
36442;DHT22;73131;50.820;16.274;2024-03-23T08:04:08;12.50;99.90
36442;DHT22;73131;50.820;16.274;2024-03-23T08:07:09;12.60;99.90
36442;DHT22;73131;50.820;16.274;2024-03-23T08:10:10;12.80;99.90
36442;DHT22;73131;50.820;16.274;2024-03-23T08:13:13;12.80;99.90
36442;DHT22;73131;50.820;16.274;2024-03-23T08:16:14;13.00;99.90
36442;DHT22;73131;50.820;16.274;2024-03-23T08:19:15;13.10;99.90
36442;DHT22;73131;50.820;16.274;2024-03-23T08:22:18;13.30;99.90
36442;DHT22;73131;50.820;16.274;2024-03-23T08:25:20;13.40;99.90
36442;DHT22;73131;50.820;16.274;2024-03-23T08:28:23;13.40;99.90
36442;DHT22;73131;50.820;16.274;2024-03-23T08:31:24;13.20;99.90
36442;DHT22;73131;50.820;16.274;2024-03-23T08:34:25;13.20;99.90
36442;DHT22;73131;50.820;16.274;2024-03-23T08:37:29;13.40;99.90
36442;DHT22;73131;50.820;16.274;2024-03-23T08:40:30;14.00;99.90
36442;DHT22;73131;50.820;16.274;2024-03-23T08:43:36;14.80;99.90
36442;DHT22;73131;50.820;16.274;2024-03-23T08:46:36;16.10;99.90
36442;DHT22;73131;50.820;16.274;2024-03-23T08:49:40;17.80;99.90
36442;DHT22;73131;50.820;16.274;2024-03-23T08:52:41;21.70;99.90
36442;DHT22;73131;50.820;16.274;2024-03-23T08:55:53;25.60;90.90
36442;DHT22;73131;50.820;16.274;2024-03-23T08:58:54;28.90;74.00
36442;DHT22;73131;50.820;16.274;2024-03-23T09:01:56;31.80;62.10
36442;DHT22;73131;50.820;16.274;2024-03-23T09:04:57;33.20;54.60
36442;DHT22;73131;50.820;16.274;2024-03-23T09:08:05;34.80;49.70
36442;DHT22;73131;50.820;16.274;2024-03-23T09:11:12;35.40;46.40
36442;DHT22;73131;50.820;16.274;2024-03-23T09:14:15;35.70;44.80
36442;DHT22;73131;50.820;16.274;2024-03-23T09:17:18;36.10;43.70
36442;DHT22;73131;50.820;16.274;2024-03-23T09:20:22;37.10;42.50
36442;DHT22;73131;50.820;16.274;2024-03-23T09:23:23;37.20;41.70
36442;DHT22;73131;50.820;16.274;2024-03-23T09:26:24;38.20;40.30
36442;DHT22;73131;50.820;16.274;2024-03-23T09:29:25;38.70;39.50
36442;DHT22;73131;50.820;16.274;2024-03-23T09:32:28;39.10;38.50
36442;DHT22;73131;50.820;16.274;2024-03-23T09:35:29;38.30;37.90
36442;DHT22;73131;50.820;16.274;2024-03-23T09:38:30;36.10;38.70
36442;DHT22;73131;50.820;16.274;2024-03-23T09:41:31;35.90;39.00
36442;DHT22;73131;50.820;16.274;2024-03-23T09:44:33;35.40;39.80
36442;DHT22;73131;50.820;16.274;2024-03-23T09:47:38;35.20;39.70
36442;DHT22;73131;50.820;16.274;2024-03-23T09:50:43;34.70;39.70
36442;DHT22;73131;50.820;16.274;2024-03-23T09:53:49;34.10;40.60
36442;DHT22;73131;50.820;16.274;2024-03-23T09:56:51;33.20;41.20
36442;DHT22;73131;50.820;16.274;2024-03-23T09:59:51;33.40;41.80
36442;DHT22;73131;50.820;16.274;2024-03-23T10:02:55;33.50;41.30
36442;DHT22;73131;50.820;16.274;2024-03-23T10:06:03;34.10;40.90
36442;DHT22;73131;50.820;16.274;2024-03-23T10:09:16;35.30;40.40
36442;DHT22;73131;50.820;16.274;2024-03-23T10:12:19;36.10;39.60
36442;DHT22;73131;50.820;16.274;2024-03-23T10:15:26;37.40;39.20
36442;DHT22;73131;50.820;16.274;2024-03-23T10:18:32;37.90;38.30
36442;DHT22;73131;50.820;16.274;2024-03-23T10:21:37;38.20;37.80
36442;DHT22;73131;50.820;16.274;2024-03-23T10:24:41;37.10;37.70
36442;DHT22;73131;50.820;16.274;2024-03-23T10:28:00;36.60;38.70
36442;DHT22;73131;50.820;16.274;2024-03-23T10:31:11;37.10;38.00
36442;DHT22;73131;50.820;16.274;2024-03-23T10:34:15;36.80;38.20
36442;DHT22;73131;50.820;16.274;2024-03-23T10:37:16;35.00;39.80
36442;DHT22;73131;50.820;16.274;2024-03-23T10:40:21;34.30;39.90
36442;DHT22;73131;50.820;16.274;2024-03-23T10:43:25;32.60;41.60
36442;DHT22;73131;50.820;16.274;2024-03-23T10:46:26;30.00;44.60
36442;DHT22;73131;50.820;16.274;2024-03-23T10:49:29;28.80;46.00
36442;DHT22;73131;50.820;16.274;2024-03-23T10:52:33;30.10;45.80
36442;DHT22;73131;50.820;16.274;2024-03-23T10:55:34;32.10;44.20
36442;DHT22;73131;50.820;16.274;2024-03-23T10:58:46;33.90;42.40
36442;DHT22;73131;50.820;16.274;2024-03-23T11:02:02;34.50;41.10
36442;DHT22;73131;50.820;16.274;2024-03-23T11:08:33;35.80;39.70
36442;DHT22;73131;50.820;16.274;2024-03-23T11:11:35;35.80;39.30
36442;DHT22;73131;50.820;16.274;2024-03-23T11:14:36;33.80;40.20
36442;DHT22;73131;50.820;16.274;2024-03-23T11:17:41;30.70;42.50
36442;DHT22;73131;50.820;16.274;2024-03-23T11:20:45;27.50;45.90
36442;DHT22;73131;50.820;16.274;2024-03-23T11:23:46;25.10;49.60
36442;DHT22;73131;50.820;16.274;2024-03-23T11:26:51;23.00;55.20
36442;DHT22;73131;50.820;16.274;2024-03-23T11:29:55;21.20;59.10
36442;DHT22;73131;50.820;16.274;2024-03-23T11:33:10;19.80;62.90
36442;DHT22;73131;50.820;16.274;2024-03-23T11:36:19;18.90;67.60
36442;DHT22;73131;50.820;16.274;2024-03-23T11:39:20;18.00;68.20
36442;DHT22;73131;50.820;16.274;2024-03-23T11:42:23;17.50;71.60
36442;DHT22;73131;50.820;16.274;2024-03-23T11:45:25;17.00;72.80
36442;DHT22;73131;50.820;16.274;2024-03-23T11:48:25;16.80;74.90
36442;DHT22;73131;50.820;16.274;2024-03-23T11:51:30;16.50;77.30
36442;DHT22;73131;50.820;16.274;2024-03-23T11:54:35;16.10;81.10
36442;DHT22;73131;50.820;16.274;2024-03-23T11:57:36;15.80;87.90
36442;DHT22;73131;50.820;16.274;2024-03-23T12:00:37;15.60;92.50
36442;DHT22;73131;50.820;16.274;2024-03-23T12:03:43;15.50;96.10
36442;DHT22;73131;50.820;16.274;2024-03-23T12:06:44;15.60;99.10
36442;DHT22;73131;50.820;16.274;2024-03-23T12:10:03;15.70;99.90
36442;DHT22;73131;50.820;16.274;2024-03-23T12:13:07;15.70;99.90
36442;DHT22;73131;50.820;16.274;2024-03-23T12:16:20;15.70;99.90
36442;DHT22;73131;50.820;16.274;2024-03-23T12:19:21;15.60;99.90
36442;DHT22;73131;50.820;16.274;2024-03-23T12:22:24;15.60;99.90
36442;DHT22;73131;50.820;16.274;2024-03-23T12:25:27;15.60;99.90
36442;DHT22;73131;50.820;16.274;2024-03-23T12:28:31;15.60;99.90
36442;DHT22;73131;50.820;16.274;2024-03-23T12:31:32;15.60;99.90
36442;DHT22;73131;50.820;16.274;2024-03-23T12:34:36;15.60;99.90
36442;DHT22;73131;50.820;16.274;2024-03-23T12:37:43;15.50;99.90
36442;DHT22;73131;50.820;16.274;2024-03-23T12:40:50;15.50;99.90
36442;DHT22;73131;50.820;16.274;2024-03-23T12:43:53;15.30;99.90
36442;DHT22;73131;50.820;16.274;2024-03-23T12:46:57;15.10;99.90
36442;DHT22;73131;50.820;16.274;2024-03-23T12:49:58;15.00;99.90
36442;DHT22;73131;50.820;16.274;2024-03-23T12:52:59;14.90;99.90
36442;DHT22;73131;50.820;16.274;2024-03-23T12:56:02;14.70;99.90
36442;DHT22;73131;50.820;16.274;2024-03-23T12:59:04;14.30;99.90
36442;DHT22;73131;50.820;16.274;2024-03-23T13:02:05;14.00;99.90
36442;DHT22;73131;50.820;16.274;2024-03-23T13:05:08;13.70;99.90
36442;DHT22;73131;50.820;16.274;2024-03-23T13:08:14;13.70;99.90
36442;DHT22;73131;50.820;16.274;2024-03-23T13:11:18;13.80;99.90
36442;DHT22;73131;50.820;16.274;2024-03-23T13:14:21;14.00;99.90
36442;DHT22;73131;50.820;16.274;2024-03-23T13:17:24;14.20;99.90
36442;DHT22;73131;50.820;16.274;2024-03-23T13:20:27;14.40;99.90
36442;DHT22;73131;50.820;16.274;2024-03-23T13:23:32;14.40;99.90
36442;DHT22;73131;50.820;16.274;2024-03-23T13:26:36;14.20;99.90
36442;DHT22;73131;50.820;16.274;2024-03-23T13:29:42;14.00;99.90
36442;DHT22;73131;50.820;16.274;2024-03-23T13:32:45;13.60;99.90
36442;DHT22;73131;50.820;16.274;2024-03-23T13:35:53;13.20;99.90
36442;DHT22;73131;50.820;16.274;2024-03-23T13:38:55;13.00;99.90
36442;DHT22;73131;50.820;16.274;2024-03-23T13:41:56;12.80;99.90
36442;DHT22;73131;50.820;16.274;2024-03-23T13:44:57;12.70;99.90
36442;DHT22;73131;50.820;16.274;2024-03-23T13:47:58;12.50;99.90
36442;DHT22;73131;50.820;16.274;2024-03-23T13:51:02;12.40;99.90
36442;DHT22;73131;50.820;16.274;2024-03-23T13:54:09;12.40;99.90
36442;DHT22;73131;50.820;16.274;2024-03-23T13:57:09;12.50;99.90
36442;DHT22;73131;50.820;16.274;2024-03-23T14:00:12;12.40;99.90
36442;DHT22;73131;50.820;16.274;2024-03-23T14:03:13;12.50;99.90
36442;DHT22;73131;50.820;16.274;2024-03-23T14:06:15;12.30;99.90
36442;DHT22;73131;50.820;16.274;2024-03-23T14:09:16;12.20;99.90
36442;DHT22;73131;50.820;16.274;2024-03-23T14:12:22;12.10;99.90
36442;DHT22;73131;50.820;16.274;2024-03-23T14:15:24;11.70;99.90
36442;DHT22;73131;50.820;16.274;2024-03-23T14:18:25;11.30;99.90
36442;DHT22;73131;50.820;16.274;2024-03-23T14:21:29;11.00;99.90
36442;DHT22;73131;50.820;16.274;2024-03-23T14:24:33;10.80;99.90
36442;DHT22;73131;50.820;16.274;2024-03-23T14:27:33;10.60;99.90
36442;DHT22;73131;50.820;16.274;2024-03-23T14:30:42;10.50;99.90
36442;DHT22;73131;50.820;16.274;2024-03-23T14:33:45;10.50;99.90
36442;DHT22;73131;50.820;16.274;2024-03-23T14:36:49;10.50;99.90
36442;DHT22;73131;50.820;16.274;2024-03-23T14:39:50;10.60;99.90
36442;DHT22;73131;50.820;16.274;2024-03-23T14:42:51;10.70;99.90
36442;DHT22;73131;50.820;16.274;2024-03-23T14:49:14;10.50;99.90
36442;DHT22;73131;50.820;16.274;2024-03-23T14:52:17;10.30;99.90
36442;DHT22;73131;50.820;16.274;2024-03-23T14:55:19;10.10;99.90
36442;DHT22;73131;50.820;16.274;2024-03-23T14:58:20;10.10;99.90
36442;DHT22;73131;50.820;16.274;2024-03-23T15:01:22;10.10;99.90
36442;DHT22;73131;50.820;16.274;2024-03-23T15:04:23;10.10;99.90
36442;DHT22;73131;50.820;16.274;2024-03-23T15:07:24;10.20;99.90
36442;DHT22;73131;50.820;16.274;2024-03-23T15:10:25;10.20;99.90
36442;DHT22;73131;50.820;16.274;2024-03-23T15:13:29;10.10;99.90
36442;DHT22;73131;50.820;16.274;2024-03-23T15:16:29;10.00;99.90
36442;DHT22;73131;50.820;16.274;2024-03-23T15:19:31;9.90;99.90
36442;DHT22;73131;50.820;16.274;2024-03-23T15:22:32;9.70;99.90
36442;DHT22;73131;50.820;16.274;2024-03-23T15:25:36;9.60;99.90
36442;DHT22;73131;50.820;16.274;2024-03-23T15:28:39;9.40;99.90
36442;DHT22;73131;50.820;16.274;2024-03-23T15:31:59;9.30;99.90
36442;DHT22;73131;50.820;16.274;2024-03-23T15:35:00;9.10;99.90
36442;DHT22;73131;50.820;16.274;2024-03-23T15:38:06;9.00;99.90
36442;DHT22;73131;50.820;16.274;2024-03-23T15:41:07;8.90;99.90
36442;DHT22;73131;50.820;16.274;2024-03-23T15:44:08;8.90;99.90
36442;DHT22;73131;50.820;16.274;2024-03-23T15:47:09;8.80;99.90
36442;DHT22;73131;50.820;16.274;2024-03-23T15:50:12;8.80;99.90
36442;DHT22;73131;50.820;16.274;2024-03-23T15:53:13;8.80;99.90
36442;DHT22;73131;50.820;16.274;2024-03-23T15:56:16;8.90;99.90
36442;DHT22;73131;50.820;16.274;2024-03-23T15:59:17;8.90;99.90
36442;DHT22;73131;50.820;16.274;2024-03-23T16:02:18;8.80;99.90
36442;DHT22;73131;50.820;16.274;2024-03-23T16:05:19;8.90;99.90
36442;DHT22;73131;50.820;16.274;2024-03-23T16:08:20;8.90;99.90
36442;DHT22;73131;50.820;16.274;2024-03-23T16:11:21;8.80;99.90
36442;DHT22;73131;50.820;16.274;2024-03-23T16:14:22;8.70;99.90
36442;DHT22;73131;50.820;16.274;2024-03-23T16:17:25;8.60;99.90
36442;DHT22;73131;50.820;16.274;2024-03-23T16:20:29;8.60;99.90
36442;DHT22;73131;50.820;16.274;2024-03-23T16:23:37;8.60;99.90
36442;DHT22;73131;50.820;16.274;2024-03-23T16:26:39;8.60;99.90
36442;DHT22;73131;50.820;16.274;2024-03-23T16:29:42;8.60;99.90
36442;DHT22;73131;50.820;16.274;2024-03-23T16:32:43;8.50;99.90
36442;DHT22;73131;50.820;16.274;2024-03-23T16:35:44;8.50;99.90
36442;DHT22;73131;50.820;16.274;2024-03-23T16:38:47;8.50;99.90
36442;DHT22;73131;50.820;16.274;2024-03-23T16:41:50;8.40;99.90
36442;DHT22;73131;50.820;16.274;2024-03-23T16:44:51;8.30;99.90
36442;DHT22;73131;50.820;16.274;2024-03-23T16:47:52;8.20;99.90
36442;DHT22;73131;50.820;16.274;2024-03-23T16:50:56;8.20;99.90
36442;DHT22;73131;50.820;16.274;2024-03-23T16:54:01;8.20;99.90
36442;DHT22;73131;50.820;16.274;2024-03-23T16:57:03;8.10;99.90
36442;DHT22;73131;50.820;16.274;2024-03-23T17:00:04;8.00;99.90
36442;DHT22;73131;50.820;16.274;2024-03-23T17:03:05;7.90;99.90
36442;DHT22;73131;50.820;16.274;2024-03-23T17:06:07;7.90;99.90
36442;DHT22;73131;50.820;16.274;2024-03-23T17:09:12;7.80;99.90
36442;DHT22;73131;50.820;16.274;2024-03-23T17:12:14;7.70;99.90
36442;DHT22;73131;50.820;16.274;2024-03-23T17:15:17;7.70;99.90
36442;DHT22;73131;50.820;16.274;2024-03-23T17:18:21;7.60;99.90
36442;DHT22;73131;50.820;16.274;2024-03-23T17:21:25;7.60;99.90
36442;DHT22;73131;50.820;16.274;2024-03-23T17:24:27;7.50;99.90
36442;DHT22;73131;50.820;16.274;2024-03-23T17:27:31;7.50;99.90
36442;DHT22;73131;50.820;16.274;2024-03-23T17:30:32;7.50;99.90
36442;DHT22;73131;50.820;16.274;2024-03-23T17:33:33;7.40;99.90
36442;DHT22;73131;50.820;16.274;2024-03-23T17:36:36;7.40;99.90
36442;DHT22;73131;50.820;16.274;2024-03-23T17:39:39;7.40;99.90
36442;DHT22;73131;50.820;16.274;2024-03-23T17:42:43;7.30;99.90
36442;DHT22;73131;50.820;16.274;2024-03-23T17:45:44;7.30;99.90
36442;DHT22;73131;50.820;16.274;2024-03-23T17:48:45;7.30;99.90
36442;DHT22;73131;50.820;16.274;2024-03-23T17:51:46;7.30;99.90
36442;DHT22;73131;50.820;16.274;2024-03-23T17:54:47;7.30;99.90
36442;DHT22;73131;50.820;16.274;2024-03-23T17:57:49;7.40;99.90
36442;DHT22;73131;50.820;16.274;2024-03-23T18:00:53;7.30;99.90
36442;DHT22;73131;50.820;16.274;2024-03-23T18:03:56;7.30;99.90
36442;DHT22;73131;50.820;16.274;2024-03-23T18:07:00;7.30;99.90
36442;DHT22;73131;50.820;16.274;2024-03-23T18:10:03;7.20;99.90
36442;DHT22;73131;50.820;16.274;2024-03-23T18:13:09;7.20;99.90
36442;DHT22;73131;50.820;16.274;2024-03-23T18:16:12;7.20;99.90
36442;DHT22;73131;50.820;16.274;2024-03-23T18:19:15;7.10;99.90
36442;DHT22;73131;50.820;16.274;2024-03-23T18:22:16;7.10;99.90
36442;DHT22;73131;50.820;16.274;2024-03-23T18:25:18;7.00;99.90
36442;DHT22;73131;50.820;16.274;2024-03-23T18:28:18;7.00;99.90
36442;DHT22;73131;50.820;16.274;2024-03-23T18:31:20;7.00;99.90
36442;DHT22;73131;50.820;16.274;2024-03-23T18:34:25;7.00;99.90
36442;DHT22;73131;50.820;16.274;2024-03-23T18:37:29;7.00;99.90
36442;DHT22;73131;50.820;16.274;2024-03-23T18:40:32;7.00;99.90
36442;DHT22;73131;50.820;16.274;2024-03-23T18:43:34;7.00;99.90
36442;DHT22;73131;50.820;16.274;2024-03-23T18:46:36;7.00;99.90
36442;DHT22;73131;50.820;16.274;2024-03-23T18:49:37;7.00;99.90
36442;DHT22;73131;50.820;16.274;2024-03-23T18:52:40;7.00;99.90
36442;DHT22;73131;50.820;16.274;2024-03-23T18:55:54;7.00;99.90
36442;DHT22;73131;50.820;16.274;2024-03-23T18:58:55;7.00;99.90
36442;DHT22;73131;50.820;16.274;2024-03-23T19:01:56;7.00;99.90
36442;DHT22;73131;50.820;16.274;2024-03-23T19:04:57;7.10;99.90
36442;DHT22;73131;50.820;16.274;2024-03-23T19:08:02;7.10;99.90
36442;DHT22;73131;50.820;16.274;2024-03-23T19:11:04;7.10;99.90
36442;DHT22;73131;50.820;16.274;2024-03-23T19:14:05;7.20;99.90
36442;DHT22;73131;50.820;16.274;2024-03-23T19:17:11;7.20;99.90
36442;DHT22;73131;50.820;16.274;2024-03-23T19:20:12;7.20;99.90
36442;DHT22;73131;50.820;16.274;2024-03-23T19:23:14;7.10;99.90
36442;DHT22;73131;50.820;16.274;2024-03-23T19:26:18;7.10;99.90
36442;DHT22;73131;50.820;16.274;2024-03-23T19:29:19;7.10;99.90
36442;DHT22;73131;50.820;16.274;2024-03-23T19:32:22;7.10;99.90
36442;DHT22;73131;50.820;16.274;2024-03-23T19:35:23;7.10;99.90
36442;DHT22;73131;50.820;16.274;2024-03-23T19:38:24;7.20;99.90
36442;DHT22;73131;50.820;16.274;2024-03-23T19:41:26;7.20;99.90
36442;DHT22;73131;50.820;16.274;2024-03-23T19:44:29;7.20;99.90
36442;DHT22;73131;50.820;16.274;2024-03-23T19:47:30;7.20;99.90
36442;DHT22;73131;50.820;16.274;2024-03-23T19:50:31;7.20;99.90
36442;DHT22;73131;50.820;16.274;2024-03-23T19:53:35;7.10;99.90
36442;DHT22;73131;50.820;16.274;2024-03-23T19:56:41;7.10;99.90
36442;DHT22;73131;50.820;16.274;2024-03-23T19:59:42;7.10;99.90
36442;DHT22;73131;50.820;16.274;2024-03-23T20:02:48;7.00;99.90